Time;durP1;ratioP1;P1;durP2;ratioP2;P2;SDS_P1;SDS_P2;PMS_P1;PMS_P2;Temp;Humidity;BMP_temperature;BMP_pressure;BME280_temperature;BME280_humidity;BME280_pressure;Samples;Min_cycle;Max_cycle;Signal;HPM_P1;HPM_P2
2024/01/05 00:02:07;;;;;;;;;;;;;;;11.69;79.20;99473.78;5033957;28;19935;-63
2024/01/05 00:04:38;;;;;;;;;;;;;;;11.78;79.01;99479.97;5043256;28;19959;-64
2024/01/05 00:07:09;;;;;;;;;;;;;;;11.60;78.80;99479.41;5037501;28;19924;-64
2024/01/05 00:09:36;;;;;;;;;;;;;;;11.44;80.17;99477.75;5055315;28;19924;-63
2024/01/05 00:12:07;;;;;;;;;;;;;;;11.46;79.80;99473.50;5047540;28;19947;-63
2024/01/05 00:14:37;;;;;;;;;;;;;;;11.28;80.63;99483.97;5048077;28;19924;-64
2024/01/05 00:17:05;;;;;;;;;;;;;;;11.30;81.04;99489.97;5040655;28;20414;-63
2024/01/05 00:19:32;;;;;;;;;;;;;;;11.43;81.00;99482.47;5041666;28;19924;-62
2024/01/05 00:22:00;;;;;;;;;;;;;;;11.45;80.32;99487.63;5048491;28;20053;-63
2024/01/05 00:24:27;;;;;;;;;;;;;;;11.47;80.71;99496.34;5048168;28;19932;-63
2024/01/05 00:26:54;;;;;;;;;;;;;;;11.48;80.64;99478.66;5061037;28;19928;-64
2024/01/05 00:29:21;;;;;;;;;;;;;;;11.45;80.54;99482.94;5048789;28;19925;-63
2024/01/05 00:31:49;;;;;;;;;;;;;;;11.69;79.29;99487.56;5043126;28;19924;-62
2024/01/05 00:34:21;;;;;;;;;;;;;;;11.69;79.10;99493.09;5043331;28;20288;-64
2024/01/05 00:36:49;;;;;;;;;;;;;;;11.94;77.65;99491.84;5048012;28;19920;-63
2024/01/05 00:39:17;;;;;;;;;;;;;;;11.57;78.09;99491.16;5041849;28;19925;-63
2024/01/05 00:41:46;;;;;;;;;;;;;;;11.87;77.61;99491.66;5032963;28;20378;-64
2024/01/05 00:44:13;;;;;;;;;;;;;;;11.61;77.21;99491.25;5065105;28;20386;-64
2024/01/05 00:46:40;;;;;;;;;;;;;;;11.91;76.82;99498.88;5040478;28;19940;-63
2024/01/05 00:49:17;;;;;;;;;;;;;;;11.82;77.15;99500.97;5046725;28;20311;-65
2024/01/05 00:52:06;;;;;;;;;;;;;;;11.53;77.36;99503.22;5056480;28;19925;-65
2024/01/05 00:54:58;;;;;;;;;;;;;;;11.60;76.62;99503.44;5027348;28;19992;-64
2024/01/05 00:57:26;;;;;;;;;;;;;;;11.51;76.74;99513.78;5048503;28;19962;-63
2024/01/05 00:59:53;;;;;;;;;;;;;;;11.22;77.69;99506.63;5049462;28;19932;-62
2024/01/05 01:02:20;;;;;;;;;;;;;;;11.33;76.39;99518.78;5040840;28;19925;-63
2024/01/05 01:04:47;;;;;;;;;;;;;;;11.50;73.87;99509.44;5048894;28;19928;-64
2024/01/05 01:07:14;;;;;;;;;;;;;;;11.44;73.37;99525.41;5043465;28;19932;-63
2024/01/05 01:09:42;;;;;;;;;;;;;;;11.37;73.47;99527.19;5044478;28;19924;-63
2024/01/05 01:12:09;;;;;;;;;;;;;;;11.17;72.80;99528.91;5045981;28;19932;-63
2024/01/05 01:14:36;;;;;;;;;;;;;;;11.20;72.31;99537.28;5047015;28;19947;-63
2024/01/05 01:17:03;;;;;;;;;;;;;;;10.97;71.53;99544.41;5041687;28;19924;-62
2024/01/05 01:19:30;;;;;;;;;;;;;;;10.92;70.53;99539.16;5043634;28;19925;-63
2024/01/05 01:21:57;;;;;;;;;;;;;;;10.79;69.93;99550.50;5046190;28;19939;-63
2024/01/05 01:24:24;;;;;;;;;;;;;;;10.98;68.90;99528.69;5049603;28;19925;-63
2024/01/05 01:26:52;;;;;;;;;;;;;;;10.84;67.96;99528.25;5046885;28;19924;-63
2024/01/05 01:29:25;;;;;;;;;;;;;;;10.88;67.75;99532.72;5044122;28;20307;-63
2024/01/05 01:32:10;;;;;;;;;;;;;;;11.03;66.59;99531.22;5061088;28;19924;-65
2024/01/05 01:34:42;;;;;;;;;;;;;;;11.03;66.54;99528.47;5045594;28;19925;-64
2024/01/05 01:37:09;;;;;;;;;;;;;;;11.05;66.33;99531.69;5045608;28;19925;-63
2024/01/05 01:39:37;;;;;;;;;;;;;;;11.04;65.75;99530.88;5050203;28;19925;-64
2024/01/05 01:42:04;;;;;;;;;;;;;;;11.20;65.36;99537.28;5035692;28;19932;-65
2024/01/05 01:44:36;;;;;;;;;;;;;;;11.17;65.49;99543.50;5022728;28;20451;-64
2024/01/05 01:47:04;;;;;;;;;;;;;;;10.90;66.65;99552.44;5042604;28;19925;-63
2024/01/05 01:49:31;;;;;;;;;;;;;;;10.94;66.68;99547.88;5036904;28;19929;-63
2024/01/05 01:51:58;;;;;;;;;;;;;;;10.72;66.75;99547.50;5047209;28;19925;-63
2024/01/05 01:54:27;;;;;;;;;;;;;;;10.65;67.31;99558.28;5040667;28;19925;-64
2024/01/05 01:56:56;;;;;;;;;;;;;;;10.68;68.15;99552.91;5039827;28;19932;-63
2024/01/05 01:59:23;;;;;;;;;;;;;;;10.88;67.67;99559.47;5046343;28;19925;-64
2024/01/05 02:01:50;;;;;;;;;;;;;;;10.79;66.92;99559.56;5047270;28;19925;-63
2024/01/05 02:04:18;;;;;;;;;;;;;;;10.80;67.17;99552.91;5044064;28;19927;-64
2024/01/05 02:06:48;;;;;;;;;;;;;;;10.84;67.43;99561.28;5046616;28;19932;-62
2024/01/05 02:09:15;;;;;;;;;;;;;;;10.70;67.22;99566.31;5046910;28;19924;-62
2024/01/05 02:11:42;;;;;;;;;;;;;;;10.97;67.36;99565.66;5038687;28;19924;-62
2024/01/05 02:14:09;;;;;;;;;;;;;;;11.09;66.23;99560.94;5058943;28;19924;-63
2024/01/05 02:16:36;;;;;;;;;;;;;;;10.88;67.43;99557.50;5041257;28;19924;-64
2024/01/05 02:19:03;;;;;;;;;;;;;;;10.57;67.13;99550.91;5050343;28;19931;-64
2024/01/05 02:21:32;;;;;;;;;;;;;;;10.56;67.19;99563.09;5046197;28;19924;-62
2024/01/05 02:24:00;;;;;;;;;;;;;;;10.52;66.92;99553.88;5049336;28;19924;-62
2024/01/05 02:26:27;;;;;;;;;;;;;;;10.43;66.99;99561.44;5065657;28;20634;-62
2024/01/05 02:28:54;;;;;;;;;;;;;;;10.50;67.67;99557.00;5048747;28;19940;-63
2024/01/05 02:31:22;;;;;;;;;;;;;;;10.71;67.46;99560.47;5050218;28;19925;-63
2024/01/05 02:33:51;;;;;;;;;;;;;;;10.84;66.58;99551.09;5049332;28;19921;-63
2024/01/05 02:36:18;;;;;;;;;;;;;;;10.79;65.88;99565.06;5049383;28;20303;-63
2024/01/05 02:38:46;;;;;;;;;;;;;;;10.88;66.32;99574.03;5048462;28;19925;-63
2024/01/05 02:41:16;;;;;;;;;;;;;;;10.73;65.99;99569.19;5038237;28;19925;-63
2024/01/05 02:43:43;;;;;;;;;;;;;;;10.65;65.79;99575.59;5035030;28;19929;-63
2024/01/05 02:46:10;;;;;;;;;;;;;;;10.62;66.52;99575.47;5052193;28;19924;-63
2024/01/05 02:48:39;;;;;;;;;;;;;;;10.81;66.64;99584.81;5049669;28;19928;-63
2024/01/05 02:51:06;;;;;;;;;;;;;;;10.74;66.01;99567.25;5048591;28;19932;-63
2024/01/05 02:53:33;;;;;;;;;;;;;;;10.80;66.31;99572.19;5044916;28;19931;-63
2024/01/05 02:56:00;;;;;;;;;;;;;;;10.62;66.89;99569.97;5040004;28;19936;-63
2024/01/05 02:58:27;;;;;;;;;;;;;;;10.55;66.77;99572.50;5045951;28;19939;-63
2024/01/05 03:00:55;;;;;;;;;;;;;;;10.63;66.55;99577.91;5049120;28;19925;-64
2024/01/05 03:03:25;;;;;;;;;;;;;;;10.55;66.25;99576.03;5042195;28;19925;-63
2024/01/05 03:05:52;;;;;;;;;;;;;;;10.36;67.27;99583.19;5043522;28;19925;-63
2024/01/05 03:08:19;;;;;;;;;;;;;;;10.51;66.73;99580.63;5039694;28;20438;-62
2024/01/05 03:10:46;;;;;;;;;;;;;;;10.38;67.20;99583.66;5037192;28;20376;-62
2024/01/05 03:13:13;;;;;;;;;;;;;;;10.52;67.33;99587.75;5048202;28;19931;-63
2024/01/05 03:15:40;;;;;;;;;;;;;;;10.69;66.68;99595.00;5046137;28;19925;-62
2024/01/05 03:18:08;;;;;;;;;;;;;;;10.46;67.53;99589.09;5041859;28;19931;-63
2024/01/05 03:20:36;;;;;;;;;;;;;;;10.45;68.01;99593.00;5040809;28;19925;-63
2024/01/05 03:23:03;;;;;;;;;;;;;;;10.41;68.49;99591.28;5034419;28;20710;-63
2024/01/05 03:25:30;;;;;;;;;;;;;;;10.49;68.27;99590.38;5045475;28;19924;-63
2024/01/05 03:27:57;;;;;;;;;;;;;;;10.58;67.54;99597.41;5052795;28;19924;-62
2024/01/05 03:30:24;;;;;;;;;;;;;;;10.48;68.08;99605.28;5048504;28;19935;-64
2024/01/05 03:32:51;;;;;;;;;;;;;;;10.28;68.84;99601.44;5051051;28;19925;-63
2024/01/05 03:35:21;;;;;;;;;;;;;;;10.18;69.30;99604.59;5040640;28;20399;-62
2024/01/05 03:37:49;;;;;;;;;;;;;;;10.36;69.24;99607.97;5043721;28;19931;-62
2024/01/05 03:40:16;;;;;;;;;;;;;;;10.53;69.31;99616.09;5051702;28;19931;-63
2024/01/05 03:42:44;;;;;;;;;;;;;;;10.21;69.05;99612.19;5048080;28;19924;-63
2024/01/05 03:45:11;;;;;;;;;;;;;;;10.00;70.56;99625.94;5040095;28;19936;-63
2024/01/05 03:47:38;;;;;;;;;;;;;;;10.10;72.12;99620.03;5048571;28;20418;-62
2024/01/05 03:50:05;;;;;;;;;;;;;;;10.13;73.31;99630.38;5055976;28;19921;-66
2024/01/05 03:52:32;;;;;;;;;;;;;;;10.12;75.26;99619.69;5049451;28;19936;-63
2024/01/05 03:55:01;;;;;;;;;;;;;;;10.03;76.74;99617.00;5042498;28;19936;-62
2024/01/05 03:57:28;;;;;;;;;;;;;;;10.06;77.02;99612.75;5051925;28;19924;-65
2024/01/05 03:59:58;;;;;;;;;;;;;;;10.11;76.83;99626.34;5043171;28;20497;-63
2024/01/05 04:02:26;;;;;;;;;;;;;;;10.17;75.92;99625.00;5041804;28;20501;-63
2024/01/05 04:04:53;;;;;;;;;;;;;;;9.95;76.31;99633.56;5044246;28;19924;-63
2024/01/05 04:07:21;;;;;;;;;;;;;;;10.06;77.09;99640.25;5041648;28;19924;-63
2024/01/05 04:09:50;;;;;;;;;;;;;;;9.69;76.76;99646.69;5042255;28;19924;-64
2024/01/05 04:12:20;;;;;;;;;;;;;;;9.51;75.76;99636.94;5046353;28;19931;-64
2024/01/05 04:14:47;;;;;;;;;;;;;;;9.45;76.93;99635.53;5037314;28;19944;-63
2024/01/05 04:17:14;;;;;;;;;;;;;;;9.61;76.81;99631.88;5041574;28;19924;-63
2024/01/05 04:19:44;;;;;;;;;;;;;;;9.64;76.10;99628.44;5036583;28;19924;-63
2024/01/05 04:22:11;;;;;;;;;;;;;;;9.77;75.69;99624.63;5048709;28;20011;-63
2024/01/05 04:24:38;;;;;;;;;;;;;;;9.61;74.26;99625.53;5048764;28;20304;-63
2024/01/05 04:27:07;;;;;;;;;;;;;;;9.88;72.75;99614.06;5049685;28;19924;-62
2024/01/05 04:29:34;;;;;;;;;;;;;;;9.61;73.62;99614.56;5040583;28;19925;-62
2024/01/05 04:32:02;;;;;;;;;;;;;;;9.68;73.83;99617.56;5047674;28;19924;-62
2024/01/05 04:34:29;;;;;;;;;;;;;;;9.54;74.69;99611.53;5039899;28;19925;-64
2024/01/05 04:36:56;;;;;;;;;;;;;;;9.56;74.34;99621.06;5043986;28;19936;-62
2024/01/05 04:39:23;;;;;;;;;;;;;;;9.57;74.44;99621.88;5049254;28;19925;-63
2024/01/05 04:41:50;;;;;;;;;;;;;;;9.46;74.18;99621.47;5043842;28;19925;-62
2024/01/05 04:44:17;;;;;;;;;;;;;;;9.58;74.25;99621.53;5040507;28;20656;-63
2024/01/05 04:46:44;;;;;;;;;;;;;;;9.50;74.68;99625.13;5037504;28;19932;-63
2024/01/05 04:49:12;;;;;;;;;;;;;;;9.60;74.41;99629.44;5062111;28;20296;-63
2024/01/05 04:51:39;;;;;;;;;;;;;;;9.52;74.28;99631.09;5044067;28;19955;-64
2024/01/05 04:54:10;;;;;;;;;;;;;;;9.55;74.04;99635.97;5043724;28;19927;-63
2024/01/05 04:56:40;;;;;;;;;;;;;;;9.56;74.37;99632.06;5047609;28;19978;-65
2024/01/05 04:59:12;;;;;;;;;;;;;;;9.44;74.62;99629.22;5050294;28;19932;-64
2024/01/05 05:01:43;;;;;;;;;;;;;;;9.36;75.26;99643.00;5044561;28;19929;-65
2024/01/05 05:04:14;;;;;;;;;;;;;;;9.47;75.22;99641.47;5053897;28;19925;-63
2024/01/05 05:06:53;;;;;;;;;;;;;;;9.62;74.80;99643.69;5050605;28;20574;-66
2024/01/05 05:09:21;;;;;;;;;;;;;;;9.43;75.08;99644.09;5028876;28;20504;-63
2024/01/05 05:11:48;;;;;;;;;;;;;;;9.43;75.57;99641.34;5047118;28;19924;-63
2024/01/05 05:14:15;;;;;;;;;;;;;;;9.59;75.40;99647.09;5045503;28;19925;-64
2024/01/05 05:16:42;;;;;;;;;;;;;;;9.50;75.28;99644.38;5044173;28;20304;-61
2024/01/05 05:19:09;;;;;;;;;;;;;;;9.29;76.23;99643.53;5043552;28;19924;-61
2024/01/05 05:21:37;;;;;;;;;;;;;;;9.26;77.26;99644.19;5042347;28;20406;-60
2024/01/05 05:24:04;;;;;;;;;;;;;;;9.15;77.26;99636.66;5028651;28;19936;-62
2024/01/05 05:26:31;;;;;;;;;;;;;;;9.09;77.62;99645.06;5049049;28;19928;-59
2024/01/05 05:28:59;;;;;;;;;;;;;;;9.05;77.65;99638.63;5045409;28;19932;-60
2024/01/05 05:31:26;;;;;;;;;;;;;;;9.23;77.43;99639.34;5046877;28;19932;-58
2024/01/05 05:33:53;;;;;;;;;;;;;;;9.20;77.14;99651.00;5045537;28;19925;-60
2024/01/05 05:36:20;;;;;;;;;;;;;;;9.18;77.08;99649.72;5045542;28;19924;-59
2024/01/05 05:38:48;;;;;;;;;;;;;;;9.18;77.06;99653.28;5034087;28;19931;-63
2024/01/05 05:41:15;;;;;;;;;;;;;;;9.21;77.28;99649.88;5040013;28;20544;-62
2024/01/05 05:43:43;;;;;;;;;;;;;;;9.10;76.83;99651.34;5046579;28;19940;-63
2024/01/05 05:46:10;;;;;;;;;;;;;;;9.09;76.96;99656.06;5047659;28;19928;-62
2024/01/05 05:48:37;;;;;;;;;;;;;;;9.12;77.38;99651.84;5051555;28;19932;-63
2024/01/05 05:51:04;;;;;;;;;;;;;;;9.20;76.81;99655.69;5050084;28;19925;-63
2024/01/05 05:53:31;;;;;;;;;;;;;;;9.13;77.38;99657.00;5059620;28;19925;-62
2024/01/05 05:55:58;;;;;;;;;;;;;;;9.14;77.48;99655.06;5051612;28;19931;-62
2024/01/05 05:58:26;;;;;;;;;;;;;;;9.04;77.45;99669.16;5052116;28;19935;-58
2024/01/05 06:00:54;;;;;;;;;;;;;;;8.94;78.50;99672.28;5050892;28;20007;-60
2024/01/05 06:03:22;;;;;;;;;;;;;;;8.90;78.39;99676.81;5048732;28;19931;-60
2024/01/05 06:05:50;;;;;;;;;;;;;;;8.84;78.82;99676.16;5040306;28;20367;-59
2024/01/05 06:08:17;;;;;;;;;;;;;;;8.89;79.07;99684.22;5037352;28;19924;-63
2024/01/05 06:10:44;;;;;;;;;;;;;;;8.87;79.05;99683.75;5039287;28;20268;-64
2024/01/05 06:13:13;;;;;;;;;;;;;;;9.03;78.75;99689.53;5050230;28;20394;-60
2024/01/05 06:15:40;;;;;;;;;;;;;;;8.95;78.85;99691.19;5063686;28;20272;-61
2024/01/05 06:18:08;;;;;;;;;;;;;;;8.94;79.33;99697.00;5066314;28;19929;-60
2024/01/05 06:20:35;;;;;;;;;;;;;;;8.85;80.08;99697.03;5045563;28;20031;-58
2024/01/05 06:23:02;;;;;;;;;;;;;;;9.04;79.68;99694.72;5036023;28;19936;-60
2024/01/05 06:25:30;;;;;;;;;;;;;;;9.07;79.15;99702.28;5049320;28;19935;-60
2024/01/05 06:27:57;;;;;;;;;;;;;;;9.17;79.32;99705.81;5066212;28;19932;-59
2024/01/05 06:30:24;;;;;;;;;;;;;;;8.91;80.08;99701.19;5051112;28;19932;-61
2024/01/05 06:32:53;;;;;;;;;;;;;;;8.91;80.44;99698.44;5048820;28;19934;-61
2024/01/05 06:35:20;;;;;;;;;;;;;;;8.92;80.60;99702.81;5044634;28;19925;-63
2024/01/05 06:37:47;;;;;;;;;;;;;;;8.90;81.14;99699.59;5046080;28;19925;-64
2024/01/05 06:40:18;;;;;;;;;;;;;;;8.85;81.86;99705.25;5049554;28;19924;-66
2024/01/05 06:42:45;;;;;;;;;;;;;;;8.77;82.22;99708.81;5046378;28;19925;-64
2024/01/05 06:45:12;;;;;;;;;;;;;;;8.64;83.07;99707.06;5027880;28;19924;-65
2024/01/05 06:47:39;;;;;;;;;;;;;;;8.60;83.67;99710.78;5042431;28;20688;-63
2024/01/05 06:50:07;;;;;;;;;;;;;;;8.71;83.83;99703.81;5040191;28;19925;-63
2024/01/05 06:52:34;;;;;;;;;;;;;;;8.57;83.79;99709.50;5038168;28;19925;-63
2024/01/05 06:55:03;;;;;;;;;;;;;;;8.65;83.49;99716.91;5040390;28;19924;-64
2024/01/05 06:57:31;;;;;;;;;;;;;;;8.70;83.60;99707.72;5048177;28;19925;-64
2024/01/05 07:00:08;;;;;;;;;;;;;;;8.61;83.59;99718.69;5050204;28;19931;-64
2024/01/05 07:02:40;;;;;;;;;;;;;;;8.52;84.62;99720.66;5049136;28;19932;-61
2024/01/05 07:05:07;;;;;;;;;;;;;;;8.56;84.44;99726.28;5043348;28;20241;-61
2024/01/05 07:07:34;;;;;;;;;;;;;;;8.69;84.42;99717.88;5049527;28;19967;-60
2024/01/05 07:10:01;;;;;;;;;;;;;;;8.72;84.00;99716.41;5036873;28;19933;-63
2024/01/05 07:12:29;;;;;;;;;;;;;;;8.63;84.28;99724.66;5051835;28;19932;-63
2024/01/05 07:14:56;;;;;;;;;;;;;;;8.71;83.98;99723.03;5045751;28;19932;-65
2024/01/05 07:17:23;;;;;;;;;;;;;;;8.80;83.84;99724.63;5050114;28;19925;-67
2024/01/05 07:19:50;;;;;;;;;;;;;;;8.54;84.34;99736.78;5047779;28;19924;-64
2024/01/05 07:22:17;;;;;;;;;;;;;;;8.72;83.70;99728.19;5050368;28;19924;-64
2024/01/05 07:24:45;;;;;;;;;;;;;;;8.56;84.21;99745.50;5048478;28;19924;-65
2024/01/05 07:27:15;;;;;;;;;;;;;;;8.60;84.47;99747.28;5062067;28;19931;-65
2024/01/05 07:29:43;;;;;;;;;;;;;;;8.65;84.15;99749.03;5043811;28;19931;-66
2024/01/05 07:32:22;;;;;;;;;;;;;;;8.67;83.99;99750.34;5032864;28;19925;-65
2024/01/05 07:34:49;;;;;;;;;;;;;;;8.73;83.40;99751.78;5040324;28;19925;-65
2024/01/05 07:37:17;;;;;;;;;;;;;;;8.63;83.63;99760.34;5039679;28;19925;-65
2024/01/05 07:39:44;;;;;;;;;;;;;;;8.38;84.66;99760.34;5038277;28;20157;-67
2024/01/05 07:42:11;;;;;;;;;;;;;;;8.40;85.45;99760.84;5046095;28;19921;-66
2024/01/05 07:44:41;;;;;;;;;;;;;;;8.65;84.90;99765.50;5041595;28;19925;-66
2024/01/05 07:47:18;;;;;;;;;;;;;;;8.49;84.86;99762.44;5044503;28;19925;-65
2024/01/05 07:49:45;;;;;;;;;;;;;;;8.43;85.08;99766.50;5041106;28;19929;-64
2024/01/05 07:52:13;;;;;;;;;;;;;;;8.37;85.24;99765.00;5038542;28;19925;-64
2024/01/05 07:54:40;;;;;;;;;;;;;;;8.38;85.58;99755.69;5038247;28;19925;-64
2024/01/05 07:57:08;;;;;;;;;;;;;;;8.58;84.75;99768.75;5044346;28;19932;-64
2024/01/05 07:59:35;;;;;;;;;;;;;;;8.34;85.41;99764.84;5039643;28;19929;-65
2024/01/05 08:02:02;;;;;;;;;;;;;;;8.23;86.25;99771.78;5045933;28;19928;-64
2024/01/05 08:04:30;;;;;;;;;;;;;;;8.25;86.08;99780.50;5044453;28;19925;-63
2024/01/05 08:06:57;;;;;;;;;;;;;;;8.34;86.29;99778.56;5038552;28;20499;-66
2024/01/05 08:09:24;;;;;;;;;;;;;;;8.20;86.50;99777.88;5045044;28;19925;-64
2024/01/05 08:11:53;;;;;;;;;;;;;;;8.11;86.98;99788.84;5041204;28;19928;-65
2024/01/05 08:14:20;;;;;;;;;;;;;;;8.10;87.57;99781.75;5053573;28;19921;-66
2024/01/05 08:16:48;;;;;;;;;;;;;;;8.39;87.13;99778.41;5046686;28;19925;-64
2024/01/05 08:19:15;;;;;;;;;;;;;;;8.30;86.59;99785.84;5036840;28;19929;-65
2024/01/05 08:21:42;;;;;;;;;;;;;;;8.28;86.62;99779.88;5043220;28;19929;-64
2024/01/05 08:24:10;;;;;;;;;;;;;;;8.42;85.73;99795.03;5038674;28;20212;-65
2024/01/05 08:26:37;;;;;;;;;;;;;;;8.49;85.71;99789.88;5045371;28;19925;-64
2024/01/05 08:29:04;;;;;;;;;;;;;;;8.48;85.31;99785.53;5050128;28;19921;-64
2024/01/05 08:31:31;;;;;;;;;;;;;;;8.23;86.13;99791.75;5048834;28;20300;-65
2024/01/05 08:33:59;;;;;;;;;;;;;;;8.37;86.50;99784.22;5048475;28;19925;-65
2024/01/05 08:36:27;;;;;;;;;;;;;;;8.25;86.49;99783.22;5057952;28;20329;-64
2024/01/05 08:38:55;;;;;;;;;;;;;;;8.28;86.35;99793.59;5043052;28;19935;-64
2024/01/05 08:41:22;;;;;;;;;;;;;;;8.31;86.00;99790.19;5043792;28;19936;-65
2024/01/05 08:43:49;;;;;;;;;;;;;;;8.30;85.99;99786.63;5041302;28;19925;-64
2024/01/05 08:46:19;;;;;;;;;;;;;;;8.39;85.80;99798.44;5050120;28;19925;-65
2024/01/05 08:48:50;;;;;;;;;;;;;;;8.48;85.68;99785.53;5012048;28;19921;-65
2024/01/05 08:51:17;;;;;;;;;;;;;;;8.51;85.19;99803.28;5041968;28;19925;-64
2024/01/05 08:53:44;;;;;;;;;;;;;;;8.61;84.93;99802.97;5040252;28;19947;-65
2024/01/05 08:56:11;;;;;;;;;;;;;;;8.55;84.41;99793.28;5046195;28;19932;-64
2024/01/05 08:58:41;;;;;;;;;;;;;;;8.51;84.51;99809.59;5041725;28;20334;-65
2024/01/05 09:01:09;;;;;;;;;;;;;;;8.54;84.44;99814.41;5048263;28;19932;-63
2024/01/05 09:03:36;;;;;;;;;;;;;;;8.69;84.35;99813.16;5040055;28;19924;-62
2024/01/05 09:06:03;;;;;;;;;;;;;;;8.49;85.10;99819.28;5037962;28;19924;-62
2024/01/05 09:08:30;;;;;;;;;;;;;;;8.43;85.34;99815.06;5048300;28;19924;-61
2024/01/05 09:10:57;;;;;;;;;;;;;;;8.58;84.80;99826.38;5042626;28;19932;-61
2024/01/05 09:13:25;;;;;;;;;;;;;;;8.54;84.52;99822.66;5050208;28;19931;-61
2024/01/05 09:15:52;;;;;;;;;;;;;;;8.60;84.57;99829.63;5037937;28;19920;-62
2024/01/05 09:18:19;;;;;;;;;;;;;;;8.51;84.74;99828.78;5048970;28;20394;-62
2024/01/05 09:20:46;;;;;;;;;;;;;;;8.60;84.91;99832.34;5048447;28;20349;-63
2024/01/05 09:23:14;;;;;;;;;;;;;;;8.53;85.09;99839.44;5046629;28;20407;-65
2024/01/05 09:25:41;;;;;;;;;;;;;;;8.48;85.13;99842.34;5064856;28;20830;-60
2024/01/05 09:28:12;;;;;;;;;;;;;;;8.54;84.93;99839.13;5049111;28;20371;-62
2024/01/05 09:30:39;;;;;;;;;;;;;;;8.65;84.57;99845.91;5050164;28;19924;-63
2024/01/05 09:33:06;;;;;;;;;;;;;;;8.58;84.67;99848.34;5032717;28;19943;-60
2024/01/05 09:35:33;;;;;;;;;;;;;;;8.58;84.79;99842.03;5053529;28;19936;-61
2024/01/05 09:38:00;;;;;;;;;;;;;;;8.48;84.90;99839.59;5053158;28;20403;-61
2024/01/05 09:40:31;;;;;;;;;;;;;;;8.81;84.61;99838.81;5054655;28;19947;-66
2024/01/05 09:43:13;;;;;;;;;;;;;;;9.02;84.72;99847.22;5036975;28;19924;-63
2024/01/05 09:45:41;;;;;;;;;;;;;;;9.00;83.31;99850.28;5052663;28;19928;-60
2024/01/05 09:48:08;;;;;;;;;;;;;;;8.98;82.54;99854.47;5051566;28;19932;-59
2024/01/05 09:50:36;;;;;;;;;;;;;;;9.14;82.00;99863.84;5051809;28;19931;-60
2024/01/05 09:53:04;;;;;;;;;;;;;;;8.95;82.22;99855.13;5063542;28;19925;-58
2024/01/05 09:55:32;;;;;;;;;;;;;;;8.64;83.02;99860.78;5039719;28;20032;-60
2024/01/05 09:57:59;;;;;;;;;;;;;;;8.70;83.43;99872.44;5049439;28;19932;-61
2024/01/05 10:00:28;;;;;;;;;;;;;;;8.86;83.31;99876.28;5041697;28;19933;-58
2024/01/05 10:02:59;;;;;;;;;;;;;;;8.81;83.17;99880.03;5049475;28;19941;-60
2024/01/05 10:05:26;;;;;;;;;;;;;;;8.76;83.35;99882.94;5044800;28;19924;-60
2024/01/05 10:07:53;;;;;;;;;;;;;;;8.86;82.55;99879.84;5042835;28;19931;-60
2024/01/05 10:10:20;;;;;;;;;;;;;;;8.87;82.69;99881.47;5038079;28;20269;-61
2024/01/05 10:12:47;;;;;;;;;;;;;;;8.90;82.12;99877.28;5044836;28;20253;-61
2024/01/05 10:15:15;;;;;;;;;;;;;;;8.86;81.26;99882.59;5049751;28;19931;-60
2024/01/05 10:17:42;;;;;;;;;;;;;;;8.81;81.92;99890.19;5042066;28;19928;-59
2024/01/05 10:20:13;;;;;;;;;;;;;;;8.85;82.25;99897.47;5048976;28;19924;-59
2024/01/05 10:22:41;;;;;;;;;;;;;;;9.09;81.31;99886.00;5042734;28;19920;-57
2024/01/05 10:25:26;;;;;;;;;;;;;;;9.14;81.08;99877.59;5057693;28;19929;-64
2024/01/05 10:27:54;;;;;;;;;;;;;;;9.01;80.88;99884.84;5052276;28;20020;-62
2024/01/05 10:30:23;;;;;;;;;;;;;;;8.68;81.60;99869.97;5044890;28;19921;-63
2024/01/05 10:33:03;;;;;;;;;;;;;;;8.87;82.24;99870.47;5052379;28;19935;-63
2024/01/05 10:35:34;;;;;;;;;;;;;;;9.01;81.35;99873.09;5035809;28;19927;-63
2024/01/05 10:38:11;;;;;;;;;;;;;;;9.07;81.60;99866.28;5064087;28;19932;-63
2024/01/05 10:40:38;;;;;;;;;;;;;;;9.10;81.06;99860.94;5059885;28;19929;-63
2024/01/05 10:43:12;;;;;;;;;;;;;;;9.18;80.35;99864.00;5045151;28;19928;-63
2024/01/05 10:45:40;;;;;;;;;;;;;;;9.06;81.12;99850.94;5052352;28;19943;-63
2024/01/05 10:48:07;;;;;;;;;;;;;;;9.00;80.56;99857.72;5064721;28;19929;-64
2024/01/05 10:50:40;;;;;;;;;;;;;;;9.09;81.27;99856.59;5055163;28;19921;-63
2024/01/05 10:53:08;;;;;;;;;;;;;;;9.22;80.59;99856.75;5064341;28;19921;-63
2024/01/05 10:55:37;;;;;;;;;;;;;;;9.29;80.28;99854.31;5050823;28;19931;-65
2024/01/05 10:58:07;;;;;;;;;;;;;;;9.35;80.01;99856.56;5043437;28;19921;-63
2024/01/05 11:00:35;;;;;;;;;;;;;;;9.31;79.62;99855.59;5045265;28;19929;-62
2024/01/05 11:03:10;;;;;;;;;;;;;;;9.09;80.40;99847.53;5050919;28;19925;-65
2024/01/05 11:05:39;;;;;;;;;;;;;;;9.35;79.68;99840.06;5042767;28;19921;-64
2024/01/05 11:08:08;;;;;;;;;;;;;;;9.29;79.73;99838.63;5045701;28;19925;-63
2024/01/05 11:10:40;;;;;;;;;;;;;;;9.09;78.83;99842.03;5038702;28;19928;-64
2024/01/05 11:13:20;;;;;;;;;;;;;;;9.15;79.36;99850.94;5040292;28;19925;-65
2024/01/05 11:15:53;;;;;;;;;;;;;;;9.50;79.01;99849.75;5037599;28;19925;-63
2024/01/05 11:18:27;;;;;;;;;;;;;;;9.44;78.05;99845.53;5060603;28;20403;-64
2024/01/05 11:20:55;;;;;;;;;;;;;;;9.67;78.07;99847.75;5050640;28;19929;-64
2024/01/05 11:23:22;;;;;;;;;;;;;;;9.40;77.28;99855.56;5049091;28;19920;-65
2024/01/05 11:25:49;;;;;;;;;;;;;;;9.57;77.67;99850.06;5054154;28;19925;-64
2024/01/05 11:28:35;;;;;;;;;;;;;;;9.46;77.09;99846.84;5048294;28;20433;-64
2024/01/05 11:31:03;;;;;;;;;;;;;;;9.65;77.06;99869.28;5049129;28;20297;-66
2024/01/05 11:33:44;;;;;;;;;;;;;;;9.37;77.59;99858.97;5044659;28;19935;-63
2024/01/05 11:36:12;;;;;;;;;;;;;;;9.43;77.29;99866.72;5046515;28;19929;-64
2024/01/05 11:38:47;;;;;;;;;;;;;;;9.32;77.27;99859.16;5053575;28;19936;-64
2024/01/05 11:41:17;;;;;;;;;;;;;;;9.59;76.83;99858.78;5051661;28;20608;-63
2024/01/05 11:43:44;;;;;;;;;;;;;;;9.86;75.93;99850.09;5050891;28;19936;-63
2024/01/05 11:46:12;;;;;;;;;;;;;;;9.55;76.32;99849.56;5045697;28;19921;-66
2024/01/05 11:48:45;;;;;;;;;;;;;;;9.53;76.78;99855.41;5049803;28;20327;-67
2024/01/05 11:51:16;;;;;;;;;;;;;;;9.45;76.71;99856.22;5043019;28;19929;-64
2024/01/05 11:53:44;;;;;;;;;;;;;;;9.19;76.84;99849.16;5045317;28;19924;-64
2024/01/05 11:56:14;;;;;;;;;;;;;;;9.30;77.72;99847.66;5039582;28;19921;-64
2024/01/05 11:58:43;;;;;;;;;;;;;;;9.45;77.21;99855.41;5058476;28;19920;-64
2024/01/05 12:01:11;;;;;;;;;;;;;;;9.66;76.42;99853.59;5045956;28;20080;-67
2024/01/05 12:03:39;;;;;;;;;;;;;;;9.58;76.13;99843.41;5041208;28;19928;-60
2024/01/05 12:06:11;;;;;;;;;;;;;;;9.54;77.05;99854.25;5039765;28;19940;-61
2024/01/05 12:08:40;;;;;;;;;;;;;;;9.83;76.45;99848.03;5045960;28;19925;-58
2024/01/05 12:11:09;;;;;;;;;;;;;;;9.67;75.31;99855.19;5048494;28;20007;-59
2024/01/05 12:13:38;;;;;;;;;;;;;;;9.98;75.04;99853.78;5041906;28;19925;-61
2024/01/05 12:16:06;;;;;;;;;;;;;;;9.89;74.40;99846.69;5039891;28;20505;-60
2024/01/05 12:18:41;;;;;;;;;;;;;;;10.00;74.74;99845.19;5044174;28;19928;-62
2024/01/05 12:21:09;;;;;;;;;;;;;;;9.94;73.84;99841.00;5042644;28;19921;-61
2024/01/05 12:23:39;;;;;;;;;;;;;;;9.76;74.13;99845.75;5038527;28;19924;-59
2024/01/05 12:26:10;;;;;;;;;;;;;;;10.07;74.12;99840.78;5041653;28;19944;-59
2024/01/05 12:28:38;;;;;;;;;;;;;;;10.00;73.05;99850.69;5041785;28;19928;-59
2024/01/05 12:31:05;;;;;;;;;;;;;;;9.99;73.60;99843.56;5044318;28;19940;-62
2024/01/05 12:33:34;;;;;;;;;;;;;;;10.31;72.43;99839.38;5040130;28;19921;-60
2024/01/05 12:36:04;;;;;;;;;;;;;;;10.41;71.45;99845.31;5045676;28;19939;-62
2024/01/05 12:38:36;;;;;;;;;;;;;;;10.11;72.36;99840.97;5049708;28;19920;-60
2024/01/05 12:41:07;;;;;;;;;;;;;;;10.04;72.94;99846.94;5058541;28;20307;-58
2024/01/05 12:43:35;;;;;;;;;;;;;;;10.14;73.54;99841.13;5041858;28;20418;-60
2024/01/05 12:46:04;;;;;;;;;;;;;;;9.99;73.59;99843.56;5056844;28;20015;-61
2024/01/05 12:48:32;;;;;;;;;;;;;;;10.10;74.03;99850.34;5056875;28;19924;-61
2024/01/05 12:51:03;;;;;;;;;;;;;;;10.30;73.02;99838.59;5043412;28;19924;-61
2024/01/05 12:53:31;;;;;;;;;;;;;;;10.01;73.34;99835.78;5040645;28;19924;-61
2024/01/05 12:56:10;;;;;;;;;;;;;;;10.17;73.34;99836.88;5042117;28;19921;-62
2024/01/05 12:58:41;;;;;;;;;;;;;;;10.02;73.93;99834.66;5061409;28;19921;-61
2024/01/05 13:01:16;;;;;;;;;;;;;;;10.02;72.41;99840.16;5052372;28;19921;-61